Time;durP1;ratioP1;P1;durP2;ratioP2;P2;SDS_P1;SDS_P2;PMS_P1;PMS_P2;Temp;Humidity;BMP_temperature;BMP_pressure;BME280_temperature;BME280_humidity;BME280_pressure;Samples;Min_cycle;Max_cycle;Signal;HPM_P1;HPM_P2
2023/08/06 00:00:39;;;;;;;0.00;0.00;;;;;;;14.56;100.00;100480.63;5051143;28;20387;-47
2023/08/06 00:03:05;;;;;;;0.00;0.00;;;;;;;14.55;100.00;100483.53;5051457;28;20087;-48
2023/08/06 00:05:30;;;;;;;0.00;0.00;;;;;;;14.60;100.00;100481.00;5051668;28;20498;-47
2023/08/06 00:07:55;;;;;;;0.00;0.00;;;;;;;14.60;100.00;100484.53;5051651;28;20075;-48
2023/08/06 00:10:21;;;;;;;0.00;0.00;;;;;;;14.60;100.00;100481.84;5051630;28;20116;-47
2023/08/06 00:12:46;;;;;;;0.00;0.00;;;;;;;14.59;100.00;100488.31;5045925;28;20029;-48
2023/08/06 00:15:12;;;;;;;0.00;0.00;;;;;;;14.63;100.00;100478.69;5030230;28;20027;-47
2023/08/06 00:17:37;;;;;;;0.00;0.00;;;;;;;14.63;100.00;100484.09;5031468;28;20041;-47
2023/08/06 00:20:07;;;;;;;0.00;0.00;;;;;;;14.61;100.00;100478.09;5032968;28;20446;-49
2023/08/06 00:22:33;;;;;;;0.00;0.00;;;;;;;14.69;100.00;100479.69;5047030;28;20033;-47
2023/08/06 00:24:58;;;;;;;0.00;0.00;;;;;;;14.73;100.00;100471.97;5031020;28;20214;-50
2023/08/06 00:27:24;;;;;;;0.00;0.00;;;;;;;14.74;100.00;100470.91;5031711;28;20064;-45
2023/08/06 00:29:49;;;;;;;0.00;0.00;;;;;;;14.75;100.00;100484.25;5051099;28;20499;-46
2023/08/06 00:32:15;;;;;;;0.00;0.00;;;;;;;14.75;100.00;100483.44;5050977;28;20036;-46
2023/08/06 00:34:40;;;;;;;0.00;0.00;;;;;;;14.79;100.00;100484.66;5051658;28;20025;-46
2023/08/06 00:37:06;;;;;;;0.00;0.00;;;;;;;14.77;100.00;100492.16;5051158;28;20064;-46
2023/08/06 00:39:31;;;;;;;0.00;0.00;;;;;;;14.70;100.00;100487.63;5035903;28;20482;-47
2023/08/06 00:41:58;;;;;;;0.00;0.00;;;;;;;14.68;100.00;100489.69;5049095;28;20094;-45
2023/08/06 00:44:23;;;;;;;0.00;0.00;;;;;;;14.73;100.00;100485.53;5050034;28;20035;-47
2023/08/06 00:46:49;;;;;;;0.00;0.00;;;;;;;14.73;100.00;100478.22;5049290;28;20116;-46
2023/08/06 00:49:14;;;;;;;0.00;0.00;;;;;;;14.69;100.00;100490.53;5050457;28;20383;-48
2023/08/06 00:51:40;;;;;;;0.00;0.00;;;;;;;14.74;100.00;100487.19;5048448;28;20040;-50
2023/08/06 00:54:05;;;;;;;0.00;0.00;;;;;;;14.78;100.00;100488.41;5034067;28;20496;-49
2023/08/06 00:56:31;;;;;;;0.00;0.00;;;;;;;14.77;100.00;100486.72;5030515;28;20032;-46
2023/08/06 00:58:57;;;;;;;0.00;0.00;;;;;;;14.75;100.00;100491.56;5042237;28;20073;-49
2023/08/06 01:01:22;;;;;;;0.00;0.00;;;;;;;14.79;100.00;100490.88;5049977;28;20025;-47
2023/08/06 01:03:48;;;;;;;0.00;0.00;;;;;;;14.84;100.00;100482.09;5050144;28;20024;-43
2023/08/06 01:06:14;;;;;;;0.00;0.00;;;;;;;14.83;100.00;100491.31;5050124;28;20467;-47
2023/08/06 01:09:01;;;;;;;0.00;0.00;;;;;;;14.86;100.00;100490.84;5048801;28;20082;-48
2023/08/06 01:11:39;;;;;;;0.00;0.00;;;;;;;14.84;100.00;100488.34;5050423;28;20029;-49
2023/08/06 01:15:00;;;;;;;0.00;0.00;;;;;;;14.79;100.00;100490.88;5032750;28;20041;-46
2023/08/06 01:17:26;;;;;;;0.00;0.00;;;;;;;14.74;100.00;100492.59;5047514;28;20059;-46
2023/08/06 01:19:52;;;;;;;0.00;0.00;;;;;;;14.71;100.00;100491.16;5031697;28;20350;-46
2023/08/06 01:22:17;;;;;;;0.00;0.00;;;;;;;14.70;100.00;100492.22;5049294;28;20036;-48
2023/08/06 01:24:47;;;;;;;0.00;0.00;;;;;;;14.79;100.00;100495.47;5030211;28;20332;-50
2023/08/06 01:27:20;;;;;;;0.00;0.00;;;;;;;14.81;100.00;100499.63;5029862;28;20060;-46
2023/08/06 01:29:51;;;;;;;0.00;0.00;;;;;;;14.82;100.00;100500.47;5028869;28;20065;-49
2023/08/06 01:32:18;;;;;;;0.00;0.00;;;;;;;14.79;100.00;100504.44;5029886;28;20109;-46
2023/08/06 01:34:44;;;;;;;0.00;0.00;;;;;;;14.84;100.00;100510.03;5028716;28;20025;-49
2023/08/06 01:37:10;;;;;;;0.00;0.00;;;;;;;14.84;100.00;100504.59;5048612;28;20136;-48
2023/08/06 01:39:36;;;;;;;0.00;0.00;;;;;;;14.86;100.00;100513.34;5049911;28;20132;-46
2023/08/06 01:42:01;;;;;;;0.00;0.00;;;;;;;14.83;100.00;100510.25;5049969;28;20029;-45
2023/08/06 01:44:27;;;;;;;0.00;0.00;;;;;;;14.80;100.00;100510.69;5032107;28;20543;-49
2023/08/06 01:46:52;;;;;;;0.00;0.00;;;;;;;14.79;100.00;100509.03;5029916;28;20056;-46
2023/08/06 01:49:17;;;;;;;0.00;0.00;;;;;;;14.79;100.00;100517.16;5029802;28;20029;-44
2023/08/06 01:51:43;;;;;;;0.00;0.00;;;;;;;14.88;100.00;100522.09;5045661;28;20509;-49
2023/08/06 01:54:08;;;;;;;0.00;0.00;;;;;;;14.89;100.00;100509.38;5034309;28;20076;-48
2023/08/06 01:56:33;;;;;;;0.00;0.00;;;;;;;14.84;100.00;100517.34;5029822;28;20027;-45
2023/08/06 01:58:59;;;;;;;0.00;0.00;;;;;;;14.88;100.00;100521.28;5043141;28;20049;-46
2023/08/06 02:01:24;;;;;;;0.00;0.00;;;;;;;14.82;100.00;100522.13;5050948;28;20108;-47
2023/08/06 02:03:50;;;;;;;0.00;0.00;;;;;;;14.82;100.00;100522.97;5039357;28;20029;-48
2023/08/06 02:06:15;;;;;;;0.00;0.00;;;;;;;14.82;100.00;100522.13;5045576;28;20017;-44
2023/08/06 02:08:40;;;;;;;0.00;0.00;;;;;;;14.83;100.00;100532.75;5037281;28;20033;-44
2023/08/06 02:11:06;;;;;;;0.00;0.00;;;;;;;14.82;100.00;100535.69;5045969;28;20367;-43
2023/08/06 02:13:31;;;;;;;0.00;0.00;;;;;;;14.79;100.00;100534.22;5056502;28;20024;-41
2023/08/06 02:15:56;;;;;;;0.00;0.00;;;;;;;14.83;100.00;100531.94;5058598;28;20032;-38
2023/08/06 02:18:22;;;;;;;0.00;0.00;;;;;;;14.69;100.00;100529.31;5059746;28;20483;-38
2023/08/06 02:20:57;;;;;;;0.00;0.00;;;;;;;14.61;100.00;100526.84;5057689;28;20021;-39
2023/08/06 02:23:23;;;;;;;0.00;0.00;;;;;;;14.59;100.00;100528.94;5053666;28;20117;-42
2023/08/06 02:25:48;;;;;;;0.00;0.00;;;;;;;14.65;100.00;100533.47;5037722;28;20100;-40
2023/08/06 02:28:14;;;;;;;0.00;0.00;;;;;;;14.65;100.00;100533.47;5043941;28;20036;-41
2023/08/06 02:30:39;;;;;;;0.00;0.00;;;;;;;14.68;100.00;100533.03;5057719;28;20033;-40
2023/08/06 02:33:04;;;;;;;0.00;0.00;;;;;;;14.60;100.00;100533.28;5058088;28;20028;-40
2023/08/06 02:35:30;;;;;;;0.00;0.00;;;;;;;14.62;100.00;100538.50;5056648;28;20040;-42
2023/08/06 02:37:55;;;;;;;0.00;0.00;;;;;;;14.59;100.00;100533.53;5055789;28;20044;-42
2023/08/06 02:40:20;;;;;;;0.00;0.00;;;;;;;14.57;100.00;100533.72;5055373;28;20398;-40
2023/08/06 02:42:46;;;;;;;0.00;0.00;;;;;;;14.57;100.00;100535.63;5055280;28;20037;-40
2023/08/06 02:45:11;;;;;;;0.00;0.00;;;;;;;14.53;100.00;100535.19;5037710;28;20148;-38
2023/08/06 02:47:36;;;;;;;0.00;0.00;;;;;;;14.58;100.00;100537.25;5036531;28;20104;-43
2023/08/06 02:50:02;;;;;;;0.00;0.00;;;;;;;14.50;100.00;100543.72;5036545;28;20048;-41
2023/08/06 02:52:27;;;;;;;0.00;0.00;;;;;;;14.51;100.00;100545.41;5054376;28;20112;-42
2023/08/06 02:54:52;;;;;;;0.00;0.00;;;;;;;14.65;100.00;100547.03;5036093;28;20468;-43
2023/08/06 02:57:18;;;;;;;0.00;0.00;;;;;;;14.62;100.00;100547.47;5033092;28;20044;-40
2023/08/06 02:59:43;;;;;;;0.00;0.00;;;;;;;14.59;100.00;100544.38;5053168;28;20045;-41
2023/08/06 03:02:09;;;;;;;0.00;0.00;;;;;;;14.59;100.00;100545.19;5054488;28;20101;-40
2023/08/06 03:04:34;;;;;;;0.00;0.00;;;;;;;14.68;100.00;100553.88;5054892;28;20040;-44
2023/08/06 03:06:59;;;;;;;0.00;0.00;;;;;;;14.70;100.00;100555.34;5055776;28;20056;-39
2023/08/06 03:09:24;;;;;;;0.00;0.00;;;;;;;14.62;100.00;100550.16;5057281;28;20479;-38
2023/08/06 03:11:50;;;;;;;0.00;0.00;;;;;;;14.63;100.00;100556.41;5057375;28;20372;-41
2023/08/06 03:14:15;;;;;;;0.00;0.00;;;;;;;14.57;100.00;100552.69;5042927;28;20025;-41
2023/08/06 03:16:40;;;;;;;0.00;0.00;;;;;;;14.61;100.00;100553.06;5035003;28;20029;-42
2023/08/06 03:19:06;;;;;;;0.00;0.00;;;;;;;14.58;100.00;100565.16;5033720;28;20061;-42
2023/08/06 03:21:31;;;;;;;0.00;0.00;;;;;;;14.57;100.00;100568.94;5049072;28;20029;-39
2023/08/06 03:23:56;;;;;;;0.00;0.00;;;;;;;14.52;100.00;100567.91;5046702;28;20116;-38
2023/08/06 03:26:22;;;;;;;0.00;0.00;;;;;;;14.41;100.00;100564.81;5034171;28;20056;-41
2023/08/06 03:28:47;;;;;;;0.00;0.00;;;;;;;14.27;100.00;100568.63;5047205;28;20040;-40
2023/08/06 03:31:13;;;;;;;0.00;0.00;;;;;;;14.17;100.00;100566.34;5053589;28;20478;-38
2023/08/06 03:33:38;;;;;;;0.00;0.00;;;;;;;14.17;100.00;100569.06;5053077;28;20029;-39
2023/08/06 03:36:03;;;;;;;0.00;0.00;;;;;;;14.11;100.00;100572.59;5052984;28;20060;-38
2023/08/06 03:38:29;;;;;;;0.00;0.00;;;;;;;14.12;100.00;100573.44;5052993;28;20086;-38
2023/08/06 03:40:54;;;;;;;0.00;0.00;;;;;;;14.03;100.00;100579.09;5053196;28;20462;-39
2023/08/06 03:43:20;;;;;;;0.10;0.00;;;;;;;13.98;100.00;100587.00;5048989;28;20119;-39
2023/08/06 03:45:45;;;;;;;0.00;0.00;;;;;;;14.01;100.00;100591.16;5032713;28;20468;-39
2023/08/06 03:48:10;;;;;;;0.00;0.00;;;;;;;13.96;100.00;100588.25;5033663;28;20065;-40
2023/08/06 03:50:36;;;;;;;0.00;0.00;;;;;;;14.00;100.00;100592.19;5040856;28;20021;-41
2023/08/06 03:53:01;;;;;;;0.00;0.00;;;;;;;13.93;100.00;100589.50;5054158;28;20060;-43
2023/08/06 03:55:27;;;;;;;0.00;0.00;;;;;;;13.93;100.00;100589.50;5033319;28;20490;-42
2023/08/06 03:57:52;;;;;;;0.00;0.00;;;;;;;13.92;100.00;100593.22;5031668;28;20076;-42
2023/08/06 04:00:18;;;;;;;0.00;0.00;;;;;;;13.95;100.00;100592.81;5032792;28;20456;-41
2023/08/06 04:02:43;;;;;;;0.00;0.00;;;;;;;13.92;100.00;100589.69;5032076;28;20026;-41
2023/08/06 04:05:09;;;;;;;0.00;0.00;;;;;;;13.86;100.00;100594.06;5033123;28;20049;-41
2023/08/06 04:07:34;;;;;;;0.00;0.00;;;;;;;13.88;100.00;100585.75;5051916;28;20029;-43
2023/08/06 04:10:02;;;;;;;0.00;0.00;;;;;;;13.76;100.00;100580.16;5051170;28;20491;-44
2023/08/06 04:12:28;;;;;;;0.00;0.00;;;;;;;13.78;100.00;100583.47;5051227;28;20021;-43
2023/08/06 04:14:54;;;;;;;0.00;0.00;;;;;;;13.72;100.00;100587.84;5050326;28;20063;-46
2023/08/06 04:17:20;;;;;;;0.00;0.00;;;;;;;13.71;100.00;100588.88;5050897;28;20025;-43
2023/08/06 04:19:50;;;;;;;0.00;0.00;;;;;;;13.74;100.00;100595.75;5051376;28;20036;-44
2023/08/06 04:22:16;;;;;;;0.00;0.00;;;;;;;13.71;100.00;100591.59;5051286;28;20036;-43
2023/08/06 04:24:41;;;;;;;0.00;0.00;;;;;;;13.66;100.00;100593.25;5049471;28;20025;-44
2023/08/06 04:27:08;;;;;;;0.00;0.00;;;;;;;13.70;100.00;100599.91;5050838;28;20114;-43
2023/08/06 04:29:33;;;;;;;0.00;0.00;;;;;;;13.71;100.00;100599.69;5032693;28;20034;-48
2023/08/06 04:31:58;;;;;;;0.00;0.00;;;;;;;13.74;100.00;100601.97;5031147;28;20064;-47
2023/08/06 04:34:24;;;;;;;0.00;0.00;;;;;;;13.83;100.00;100600.75;5029525;28;20026;-47
2023/08/06 04:36:49;;;;;;;0.00;0.00;;;;;;;13.81;100.00;100607.41;5045297;28;20538;-49
2023/08/06 04:39:15;;;;;;;0.00;0.00;;;;;;;13.84;100.00;100613.22;5050701;28;20032;-46
2023/08/06 04:41:40;;;;;;;0.00;0.00;;;;;;;13.89;100.00;100617.19;5050281;28;20100;-44
2023/08/06 04:44:05;;;;;;;0.00;0.00;;;;;;;13.94;100.00;100626.31;5050360;28;20056;-43
2023/08/06 04:46:31;;;;;;;0.00;0.00;;;;;;;13.97;100.00;100623.19;5050464;28;20064;-45
2023/08/06 04:48:56;;;;;;;0.00;0.00;;;;;;;14.07;100.00;100617.38;5050080;28;20040;-46
2023/08/06 04:51:21;;;;;;;0.00;0.00;;;;;;;14.13;100.00;100616.50;5048979;28;20070;-45
2023/08/06 04:53:47;;;;;;;0.00;0.00;;;;;;;14.18;100.00;100621.31;5045199;28;20155;-44
2023/08/06 04:56:12;;;;;;;0.00;0.00;;;;;;;14.18;100.00;100630.25;5030608;28;20025;-38
2023/08/06 04:58:37;;;;;;;0.00;0.00;;;;;;;14.18;100.00;100627.53;5030707;28;20535;-42
2023/08/06 05:01:03;;;;;;;0.00;0.00;;;;;;;14.19;100.00;100628.38;5030408;28;20372;-43
2023/08/06 05:03:28;;;;;;;0.00;0.00;;;;;;;14.25;100.00;100635.66;5030069;28;20083;-46
2023/08/06 05:05:54;;;;;;;0.00;0.00;;;;;;;14.21;100.00;100640.66;5038443;28;20025;-45
2023/08/06 05:08:19;;;;;;;0.00;0.00;;;;;;;14.19;100.00;100634.63;5049915;28;20040;-46
2023/08/06 05:10:45;;;;;;;0.00;0.00;;;;;;;14.24;100.00;100644.81;5049954;28;20536;-47
2023/08/06 05:13:11;;;;;;;0.00;0.00;;;;;;;14.18;100.00;100646.47;5048273;28;20025;-47
2023/08/06 05:15:36;;;;;;;0.00;0.00;;;;;;;14.21;100.00;100645.22;5038483;28;20523;-46
2023/08/06 05:18:01;;;;;;;0.00;0.00;;;;;;;14.13;100.00;100654.41;5028414;28;20407;-47
2023/08/06 05:21:23;;;;;;;0.00;0.00;;;;;;;14.11;100.00;100651.06;5512308;22;20019;-78
2023/08/06 05:23:49;;;;;;;0.00;0.00;;;;;;;14.12;100.00;100666.28;5008204;28;20060;-76
2023/08/06 05:26:18;;;;;;;0.00;0.00;;;;;;;14.07;100.00;100659.84;5017610;28;20500;-78
2023/08/06 05:28:44;;;;;;;0.00;0.00;;;;;;;14.18;100.00;100662.72;5012760;28;20475;-78
2023/08/06 05:31:09;;;;;;;0.00;0.00;;;;;;;14.19;100.00;100664.41;5014927;28;20026;-77
2023/08/06 05:33:34;;;;;;;0.00;0.00;;;;;;;14.18;100.00;100657.31;5014725;28;20421;-77
2023/08/06 05:36:00;;;;;;;0.00;0.00;;;;;;;14.19;100.00;100661.69;5017227;28;20081;-78
2023/08/06 05:38:25;;;;;;;0.00;0.00;;;;;;;14.18;100.00;100668.13;5030155;28;20564;-76
2023/08/06 05:40:50;;;;;;;0.00;0.00;;;;;;;14.21;100.00;100667.72;5030052;28;20034;-76
2023/08/06 05:43:16;;;;;;;0.00;0.00;;;;;;;14.22;100.00;100671.28;5026071;28;20033;-76
2023/08/06 05:45:46;;;;;;;0.00;0.00;;;;;;;14.28;100.00;100662.31;5021577;28;20879;-75
2023/08/06 05:48:11;;;;;;;0.00;0.00;;;;;;;14.26;100.00;100676.03;5026641;28;20274;-75
2023/08/06 05:50:37;;;;;;;0.00;0.00;;;;;;;14.26;100.00;100665.22;5024005;28;20037;-75
2023/08/06 05:53:02;;;;;;;0.00;0.00;;;;;;;14.28;100.00;100670.44;5014635;28;20156;-74
2023/08/06 05:55:27;;;;;;;0.00;0.00;;;;;;;14.30;100.00;100664.78;5009553;28;20030;-75
2023/08/06 05:57:53;;;;;;;0.00;0.00;;;;;;;14.28;100.00;100673.97;5005065;28;20026;-74
2023/08/06 06:00:18;;;;;;;0.00;0.00;;;;;;;14.32;100.00;100663.53;5009197;28;20037;-74
2023/08/06 06:02:43;;;;;;;0.00;0.00;;;;;;;14.37;100.00;100665.59;5005323;28;20022;-75
2023/08/06 06:05:09;;;;;;;0.00;0.00;;;;;;;14.35;100.00;100667.69;5004114;28;20045;-75
2023/08/06 06:07:34;;;;;;;0.00;0.00;;;;;;;14.48;100.00;100667.66;5018020;28;20092;-75
2023/08/06 06:10:00;;;;;;;0.00;0.00;;;;;;;14.41;100.00;100666.88;5008463;28;20041;-75
2023/08/06 06:12:26;;;;;;;0.00;0.00;;;;;;;14.47;100.00;100666.00;5003125;28;20011;-76
2023/08/06 06:14:51;;;;;;;0.00;0.00;;;;;;;14.50;100.00;100660.16;5001514;28;20026;-75
2023/08/06 06:17:16;;;;;;;0.00;0.00;;;;;;;14.46;100.00;100658.94;5004266;28;20026;-74
2023/08/06 06:19:42;;;;;;;0.00;0.00;;;;;;;14.54;100.00;100650.63;5004585;28;20026;-75
2023/08/06 06:22:07;;;;;;;0.00;0.00;;;;;;;14.65;100.00;100652.66;5006856;28;20057;-76
2023/08/06 06:24:33;;;;;;;0.00;0.00;;;;;;;14.59;100.00;100656.22;5005724;28;20415;-77
2023/08/06 06:26:58;;;;;;;0.00;0.00;;;;;;;14.65;100.00;100649.94;5004774;28;20044;-76
2023/08/06 06:29:24;;;;;;;0.00;0.00;;;;;;;14.61;100.00;100646.03;4997163;28;20022;-76
2023/08/06 06:31:49;;;;;;;0.00;0.00;;;;;;;14.69;100.00;100651.19;5008277;28;20104;-76
2023/08/06 06:34:14;;;;;;;0.00;0.00;;;;;;;14.70;100.00;100641.19;5003869;28;20022;-77
2023/08/06 06:36:40;;;;;;;0.00;0.00;;;;;;;14.71;100.00;100645.56;5006160;28;20109;-76
2023/08/06 06:39:05;;;;;;;0.00;0.00;;;;;;;14.73;100.00;100650.75;5007508;28;20103;-77
2023/08/06 06:41:32;;;;;;;0.00;0.00;;;;;;;14.74;100.00;100653.25;5008879;28;20033;-76
2023/08/06 06:43:58;;;;;;;0.00;0.00;;;;;;;14.78;100.00;100665.31;5001622;28;20041;-76
2023/08/06 06:46:23;;;;;;;0.00;0.00;;;;;;;14.83;100.00;100662.81;4998618;28;20129;-78
2023/08/06 06:48:49;;;;;;;0.00;0.00;;;;;;;14.90;100.00;100666.34;5002006;28;20023;-76
2023/08/06 06:51:14;;;;;;;0.00;0.00;;;;;;;14.97;100.00;100670.88;5001601;28;20480;-76
2023/08/06 06:53:40;;;;;;;0.00;0.00;;;;;;;14.92;100.00;100674.22;5006606;28;20045;-75
2023/08/06 06:56:05;;;;;;;0.00;0.00;;;;;;;15.02;100.00;100684.63;5006498;28;20529;-75
2023/08/06 06:58:31;;;;;;;0.00;0.00;;;;;;;15.06;100.00;100680.41;5000362;28;20625;-74
2023/08/06 07:00:57;;;;;;;0.00;0.00;;;;;;;15.12;100.00;100683.13;5008274;28;20437;-76
2023/08/06 07:03:22;;;;;;;0.00;0.00;;;;;;;15.12;100.00;100680.41;5002793;28;20065;-75
2023/08/06 07:05:49;;;;;;;0.00;0.00;;;;;;;15.22;100.00;100677.22;5005079;28;20117;-76
2023/08/06 07:08:15;;;;;;;0.00;0.00;;;;;;;15.29;100.00;100679.91;4997710;28;20044;-76
2023/08/06 07:10:41;;;;;;;0.00;0.00;;;;;;;15.44;100.00;100666.88;5005747;28;20092;-74
2023/08/06 07:13:06;;;;;;;0.00;0.00;;;;;;;15.49;100.00;100669.78;4997125;28;20030;-74
2023/08/06 07:15:31;;;;;;;0.00;0.00;;;;;;;15.65;100.00;100662.97;5004768;28;20022;-76
2023/08/06 07:17:57;;;;;;;0.00;0.00;;;;;;;15.79;100.00;100659.13;5000218;28;20030;-73
2023/08/06 07:20:22;;;;;;;0.00;0.00;;;;;;;15.97;100.00;100657.53;4998640;28;20097;-74
2023/08/06 07:22:47;;;;;;;0.00;0.00;;;;;;;16.08;100.00;100654.09;5003309;28;20065;-75
2023/08/06 07:25:13;;;;;;;0.00;0.00;;;;;;;16.31;100.00;100658.91;5001284;28;20046;-77
2023/08/06 07:27:38;;;;;;;0.00;0.00;;;;;;;16.53;100.00;100663.88;5007503;28;20028;-74
2023/08/06 07:30:05;;;;;;;0.00;0.00;;;;;;;16.76;100.00;100652.34;5000354;28;20038;-74
2023/08/06 07:32:30;;;;;;;0.00;0.00;;;;;;;17.09;100.00;100662.84;5003912;28;20076;-74
2023/08/06 07:34:59;;;;;;;0.00;0.00;;;;;;;17.33;100.00;100658.34;5001508;28;20441;-75
2023/08/06 07:37:25;;;;;;;0.00;0.00;;;;;;;17.80;100.00;100663.09;5008434;28;20034;-74
2023/08/06 07:39:50;;;;;;;0.00;0.00;;;;;;;18.17;100.00;100648.22;5009317;28;20041;-74
2023/08/06 07:42:15;;;;;;;0.00;0.00;;;;;;;18.31;100.00;100653.41;5004701;28;20489;-74
2023/08/06 07:44:41;;;;;;;0.00;0.00;;;;;;;18.51;100.00;100653.88;5007894;28;20458;-74
2023/08/06 07:47:06;;;;;;;0.00;0.00;;;;;;;18.80;100.00;100656.69;5012145;28;20045;-73
2023/08/06 07:49:31;;;;;;;0.00;0.00;;;;;;;19.02;100.00;100641.31;5020142;28;20036;-76
2023/08/06 07:51:57;;;;;;;0.00;0.00;;;;;;;19.50;100.00;100650.94;5025797;28;20033;-73
2023/08/06 07:54:24;;;;;;;0.00;0.00;;;;;;;19.61;100.00;100646.50;5020665;28;20053;-73
2023/08/06 07:56:49;;;;;;;0.00;0.00;;;;;;;19.72;100.00;100648.38;5011120;28;20060;-73
2023/08/06 07:59:15;;;;;;;0.00;0.00;;;;;;;19.83;100.00;100638.44;5010867;28;20077;-74
2023/08/06 08:01:40;;;;;;;0.00;0.00;;;;;;;19.58;100.00;100646.16;5012807;28;20104;-74
2023/08/06 08:04:05;;;;;;;0.00;0.00;;;;;;;19.30;100.00;100651.41;5012393;28;20037;-74
2023/08/06 08:06:31;;;;;;;0.00;0.00;;;;;;;18.83;100.00;100645.31;5012148;28;20113;-74
2023/08/06 08:08:56;;;;;;;0.00;0.00;;;;;;;18.63;100.00;100654.66;5012229;28;20018;-74
2023/08/06 08:11:22;;;;;;;0.00;0.00;;;;;;;18.67;100.00;100646.00;5026983;28;20092;-73
2023/08/06 08:13:47;;;;;;;0.00;0.00;;;;;;;18.74;100.00;100650.25;5011853;28;20054;-73
2023/08/06 08:16:12;;;;;;;0.00;0.00;;;;;;;19.08;100.00;100651.25;5011722;28;20041;-74
2023/08/06 08:18:38;;;;;;;0.00;0.00;;;;;;;18.98;100.00;100651.06;5011905;28;20041;-74
2023/08/06 08:21:03;;;;;;;0.00;0.00;;;;;;;19.27;100.00;100656.50;5010266;28;20028;-73
2023/08/06 08:23:28;;;;;;;0.00;0.00;;;;;;;19.58;100.00;100646.97;5009774;28;20081;-74
2023/08/06 08:25:54;;;;;;;0.00;0.00;;;;;;;19.66;100.00;100651.22;5010344;28;20080;-74
2023/08/06 08:28:19;;;;;;;0.00;0.00;;;;;;;19.74;100.00;100656.28;5011272;28;20044;-74
2023/08/06 08:30:45;;;;;;;0.00;0.00;;;;;;;19.76;100.00;100654.16;5011232;28;20025;-74
2023/08/06 08:33:10;;;;;;;0.00;0.00;;;;;;;20.05;100.00;100656.81;5011590;28;20117;-73
2023/08/06 08:35:36;;;;;;;0.00;0.00;;;;;;;20.41;100.00;100655.44;5011428;28;20108;-75
2023/08/06 08:38:01;;;;;;;0.00;0.00;;;;;;;20.84;100.00;100664.78;5009911;28;20033;-73
2023/08/06 08:40:33;;;;;;;0.00;0.00;;;;;;;21.33;100.00;100661.22;5010846;28;20539;-74
2023/08/06 08:43:02;;;;;;;0.00;0.00;;;;;;;21.45;100.00;100667.41;5010153;28;20030;-74
2023/08/06 08:45:29;;;;;;;0.00;0.00;;;;;;;20.82;100.00;100672.41;5011468;28;20384;-74
2023/08/06 08:47:54;;;;;;;0.00;0.00;;;;;;;20.46;100.00;100665.59;5011482;28;20517;-74
2023/08/06 08:50:20;;;;;;;0.00;0.00;;;;;;;20.53;100.00;100668.97;5011485;28;20030;-74
2023/08/06 08:52:48;;;;;;;0.00;0.00;;;;;;;20.55;100.00;100669.59;5010356;28;20040;-74
2023/08/06 08:55:15;;;;;;;0.00;0.00;;;;;;;20.68;100.00;100677.44;5009867;28;20491;-74
2023/08/06 08:57:40;;;;;;;0.00;0.00;;;;;;;20.94;100.00;100669.56;5011300;28;20030;-73
2023/08/06 09:00:06;;;;;;;0.00;0.00;;;;;;;20.72;100.00;100681.31;5012249;28;20026;-73
2023/08/06 09:02:33;;;;;;;0.00;0.00;;;;;;;21.05;100.00;100674.06;5012489;28;20504;-73
2023/08/06 09:05:02;;;;;;;0.00;0.00;;;;;;;21.39;100.00;100671.19;5012167;28;20030;-74
2023/08/06 09:07:30;;;;;;;0.00;0.00;;;;;;;21.79;100.00;100686.34;5012041;28;20537;-75
2023/08/06 09:09:56;;;;;;;0.00;0.00;;;;;;;22.16;100.00;100691.03;4995015;28;20542;-75
2023/08/06 09:12:22;;;;;;;0.00;0.00;;;;;;;22.02;100.00;100685.19;5010912;28;20033;-75
2023/08/06 09:14:47;;;;;;;0.00;0.00;;;;;;;21.98;100.00;100687.59;5012680;28;20030;-75
2023/08/06 09:17:13;;;;;;;0.00;0.00;;;;;;;22.29;100.00;100693.34;5012105;28;20372;-75
2023/08/06 09:19:45;;;;;;;0.00;0.00;;;;;;;22.23;100.00;100689.75;5012509;28;20429;-76
2023/08/06 09:22:13;;;;;;;0.00;0.00;;;;;;;22.33;100.00;100697.22;5012139;28;20052;-75
2023/08/06 09:24:38;;;;;;;;;;;;;;;22.34;100.00;100694.22;5013056;28;20388;-76
2023/08/06 09:27:04;;;;;;;0.00;0.00;;;;;;;22.32;100.00;100701.03;5012173;28;19913;-76
2023/08/06 09:29:31;;;;;;;0.00;0.00;;;;;;;21.97;100.00;100693.34;5012128;28;20029;-75
2023/08/06 09:31:57;;;;;;;0.00;0.00;;;;;;;21.78;100.00;100696.47;5012096;28;20025;-75
2023/08/06 09:34:23;;;;;;;0.00;0.00;;;;;;;21.97;100.00;100702.41;5011055;28;20030;-75
2023/08/06 09:36:55;;;;;;;0.00;0.00;;;;;;;21.94;100.00;100688.41;5012639;28;20037;-76
2023/08/06 09:39:26;;;;;;;0.00;0.00;;;;;;;22.00;100.00;100699.13;5011639;28;20034;-75
2023/08/06 09:41:56;;;;;;;0.00;0.00;;;;;;;22.10;100.00;100709.34;5012252;28;20037;-76
2023/08/06 09:44:23;;;;;;;0.00;0.00;;;;;;;22.05;100.00;100712.88;5027482;28;20018;-75
2023/08/06 09:46:56;;;;;;;0.00;0.00;;;;;;;21.97;100.00;100720.75;5012054;28;20030;-74
2023/08/06 09:49:28;;;;;;;0.00;0.00;;;;;;;22.21;100.00;100721.25;5010518;28;20095;-74
2023/08/06 09:51:55;;;;;;;0.00;0.00;;;;;;;22.49;100.00;100723.66;5011347;28;20445;-74
2023/08/06 09:54:22;;;;;;;0.00;0.00;;;;;;;22.68;100.00;100732.28;5010563;28;20033;-74
2023/08/06 09:56:48;;;;;;;;;;;;;;;23.25;100.00;100738.91;5010951;28;20137;-74
2023/08/06 09:59:15;;;;;;;0.00;0.00;;;;;;;23.79;100.00;100738.50;5011629;28;20095;-75
2023/08/06 10:01:41;;;;;;;0.00;0.00;;;;;;;24.19;99.27;100733.28;5010318;28;20022;-75
2023/08/06 10:04:11;;;;;;;0.00;0.00;;;;;;;24.08;99.15;100740.72;5011927;28;20369;-76
2023/08/06 10:06:37;;;;;;;0.00;0.00;;;;;;;24.18;99.38;100743.47;5026294;28;20029;-76
2023/08/06 10:09:03;;;;;;;0.00;0.00;;;;;;;24.56;93.57;100734.94;5011775;28;20464;-76
2023/08/06 10:11:29;;;;;;;0.00;0.00;;;;;;;25.36;91.74;100740.50;5010580;28;20375;-75
2023/08/06 10:13:58;;;;;;;0.00;0.00;;;;;;;25.73;89.36;100744.69;5011831;28;20021;-75
2023/08/06 10:16:24;;;;;;;0.00;0.00;;;;;;;25.96;91.88;100754.19;5010468;28;20438;-76
2023/08/06 10:18:50;;;;;;;0.00;0.00;;;;;;;25.46;90.02;100751.47;5011620;28;20030;-75
2023/08/06 10:21:16;;;;;;;0.00;0.00;;;;;;;24.60;96.80;100758.88;5010452;28;20030;-76
2023/08/06 10:23:41;;;;;;;0.00;0.00;;;;;;;24.30;96.52;100757.78;5013418;28;20054;-75
2023/08/06 10:26:08;;;;;;;0.00;0.00;;;;;;;24.36;96.21;100760.53;5015447;28;20026;-75
2023/08/06 10:28:38;;;;;;;0.00;0.00;;;;;;;24.45;92.87;100753.38;5015105;28;20022;-75
2023/08/06 10:31:04;;;;;;;0.00;0.00;;;;;;;24.79;95.01;100758.28;5015081;28;20036;-75
2023/08/06 10:33:41;;;;;;;0.00;0.00;;;;;;;24.68;93.32;100755.56;5015258;28;20076;-75
2023/08/06 10:36:09;;;;;;;0.00;0.00;;;;;;;24.35;92.88;100758.88;5015042;28;20022;-75
2023/08/06 10:38:36;;;;;;;0.00;0.00;;;;;;;23.88;93.95;100753.38;5014849;28;20022;-75
2023/08/06 10:41:03;;;;;;;0.00;0.00;;;;;;;23.33;93.99;100763.09;5014770;28;20022;-75
2023/08/06 10:43:37;;;;;;;0.00;0.00;;;;;;;23.44;93.96;100767.50;5014909;28;20105;-75
2023/08/06 10:46:04;;;;;;;0.00;0.00;;;;;;;23.73;95.28;100764.34;5015214;28;20467;-75
2023/08/06 10:48:40;;;;;;;0.00;0.00;;;;;;;23.50;93.43;100759.28;5014928;28;20132;-75
2023/08/06 10:51:11;;;;;;;0.00;0.00;;;;;;;22.72;95.17;100760.84;5014349;28;20050;-74
2023/08/06 10:53:37;;;;;;;0.00;0.00;;;;;;;22.46;97.81;100768.06;5014217;28;20064;-74
2023/08/06 10:56:18;;;;;;;0.00;0.00;;;;;;;22.51;97.79;100759.88;5014369;28;20107;-74
2023/08/06 10:58:45;;;;;;;0.00;0.00;;;;;;;23.00;100.00;100767.88;5013103;28;20061;-75
2023/08/06 11:01:11;;;;;;;0.00;0.00;;;;;;;23.07;94.70;100778.63;5014581;28;20018;-76
2023/08/06 11:03:37;;;;;;;0.00;0.00;;;;;;;22.76;99.74;100766.63;5011577;28;20759;-75
2023/08/06 11:06:03;;;;;;;0.00;0.00;;;;;;;22.48;99.56;100765.03;4994953;28;20353;-74
2023/08/06 11:08:32;;;;;;;0.00;0.00;;;;;;;22.54;100.00;100769.50;5006704;28;20088;-75
2023/08/06 11:11:09;;;;;;;0.00;0.00;;;;;;;22.06;100.00;100771.25;5028190;28;20261;-75
2023/08/06 11:13:34;;;;;;;0.00;0.00;;;;;;;21.84;100.00;100771.31;5021455;28;20446;-75
2023/08/06 11:15:59;;;;;;;0.00;0.00;;;;;;;21.32;100.00;100778.09;5021807;28;20052;-75